Time;durP1;ratioP1;P1;durP2;ratioP2;P2;SDS_P1;SDS_P2;PMS_P1;PMS_P2;Temp;Humidity;BMP_temperature;BMP_pressure;BME280_temperature;BME280_humidity;BME280_pressure;Samples;Min_cycle;Max_cycle;Signal;HPM_P1;HPM_P2
2023/03/05 00:01:23;;;;;;;18.87;11.40;;;;;;;11.93;62.72;94160.53;4992931;28;20190;-47
2023/03/05 00:03:52;;;;;;;19.23;11.50;;;;;;;11.93;62.74;94157.97;4992703;28;20211;-49
2023/03/05 00:06:19;;;;;;;17.73;11.67;;;;;;;11.94;62.57;94158.78;4993196;28;20254;-48
2023/03/05 00:08:45;;;;;;;18.00;11.53;;;;;;;11.93;62.66;94150.28;4993109;28;20534;-49
2023/03/05 00:11:13;;;;;;;16.93;10.83;;;;;;;11.93;62.64;94145.16;4992856;28;20185;-51
2023/03/05 00:13:40;;;;;;;19.53;12.80;;;;;;;11.93;62.74;94144.38;4992508;28;20577;-51
2023/03/05 00:16:08;;;;;;;18.47;12.17;;;;;;;11.94;62.72;94140.84;4992637;28;20200;-51
2023/03/05 00:18:35;;;;;;;20.33;12.40;;;;;;;11.93;62.67;94145.16;4992890;28;20196;-47
2023/03/05 00:21:05;;;;;;;16.93;11.20;;;;;;;11.93;62.55;94142.59;4992758;28;20716;-50
2023/03/05 00:23:32;;;;;;;18.20;12.30;;;;;;;11.93;62.70;94136.69;4991093;28;20208;-48
2023/03/05 00:26:02;;;;;;;16.93;11.57;;;;;;;11.94;62.64;94135.72;4992698;28;20307;-52
2023/03/05 00:28:29;;;;;;;14.83;11.13;;;;;;;11.92;62.50;94130.75;4992418;28;20288;-49
2023/03/05 00:31:00;;;;;;;19.63;12.27;;;;;;;11.94;62.66;94138.28;4992680;28;20188;-54
2023/03/05 00:33:27;;;;;;;22.30;12.33;;;;;;;11.93;62.60;94136.69;4992059;28;20295;-49
2023/03/05 00:35:53;;;;;;;16.53;11.17;;;;;;;11.93;62.62;94127.22;4992313;28;20621;-47
2023/03/05 00:38:22;;;;;;;19.33;12.77;;;;;;;11.92;62.50;94130.75;4992743;28;20251;-49
2023/03/05 00:40:51;;;;;;;14.77;10.80;;;;;;;11.93;62.68;94126.44;4991391;28;20204;-52
2023/03/05 00:43:17;;;;;;;16.00;12.03;;;;;;;11.92;62.48;94124.84;4991817;28;20284;-47
2023/03/05 00:45:44;;;;;;;15.27;11.63;;;;;;;11.91;62.69;94118.09;4991981;28;20673;-53
2023/03/05 00:48:11;;;;;;;18.07;11.37;;;;;;;11.88;62.57;94108.97;4991858;28;20185;-50
2023/03/05 00:50:38;;;;;;;15.87;10.90;;;;;;;11.91;62.66;94112.97;4991961;28;20200;-49
2023/03/05 00:53:05;;;;;;;16.27;11.43;;;;;;;11.89;62.49;94114.91;4992730;28;20255;-49
2023/03/05 00:55:34;;;;;;;19.77;11.50;;;;;;;11.89;62.43;94110.56;4991593;28;20229;-48
2023/03/05 00:58:01;;;;;;;14.63;11.43;;;;;;;11.89;62.70;94107.22;4992209;28;20638;-52
2023/03/05 01:00:28;;;;;;;15.67;11.37;;;;;;;11.88;62.60;94103.84;4992167;28;20189;-49
2023/03/05 01:02:55;;;;;;;16.37;11.97;;;;;;;11.86;62.45;94105.75;4992029;28;20197;-52
2023/03/05 01:05:22;;;;;;;17.83;11.33;;;;;;;11.86;62.35;94100.63;4991977;28;20304;-50
2023/03/05 01:07:52;;;;;;;20.00;11.67;;;;;;;11.85;62.25;94093.91;4991840;28;20224;-48
2023/03/05 01:10:19;;;;;;;15.97;11.17;;;;;;;11.85;62.24;94105.91;4991577;28;20213;-48
2023/03/05 01:12:48;;;;;;;20.00;11.40;;;;;;;11.83;62.24;94093.28;4990951;28;20197;-51
2023/03/05 01:15:15;;;;;;;16.83;10.70;;;;;;;11.83;62.24;94090.72;4991877;28;20621;-53
2023/03/05 01:17:41;;;;;;;19.07;10.70;;;;;;;11.76;62.34;94080.28;4991618;28;20193;-54
2023/03/05 01:20:10;;;;;;;17.70;11.33;;;;;;;11.80;62.22;94096.13;4991687;28;20189;-50
2023/03/05 01:22:36;;;;;;;22.20;12.37;;;;;;;11.80;62.22;94093.56;4991459;28;20513;-48
2023/03/05 01:25:03;;;;;;;16.57;10.67;;;;;;;11.77;62.01;94092.09;4992180;28;20208;-49
2023/03/05 01:27:30;;;;;;;16.00;11.37;;;;;;;11.76;61.86;94089.72;4991384;28;20231;-49
2023/03/05 01:29:58;;;;;;;16.80;10.77;;;;;;;11.78;61.89;94085.22;4991654;28;20186;-48
2023/03/05 01:32:25;;;;;;;15.30;10.97;;;;;;;11.77;62.03;94078.50;4991032;28;20197;-48
2023/03/05 01:34:52;;;;;;;14.97;10.57;;;;;;;11.77;61.98;94078.50;4991588;28;20199;-51
2023/03/05 01:37:19;;;;;;;14.00;10.77;;;;;;;11.76;61.95;94087.16;4991096;28;20204;-50
2023/03/05 01:39:45;;;;;;;15.13;11.07;;;;;;;11.75;61.87;94078.69;4989877;28;20551;-47
2023/03/05 01:42:12;;;;;;;17.63;11.13;;;;;;;11.74;61.97;94077.09;4990638;28;20625;-49
2023/03/05 01:44:39;;;;;;;18.03;11.93;;;;;;;11.74;61.82;94078.81;4990574;28;20217;-47
2023/03/05 01:47:07;;;;;;;15.80;9.97;;;;;;;11.73;61.71;94074.66;4990946;28;20312;-47
2023/03/05 01:49:37;;;;;;;17.77;10.80;;;;;;;11.72;61.68;94076.44;4991075;28;20716;-51
2023/03/05 01:52:07;;;;;;;16.10;10.37;;;;;;;11.71;61.77;94072.28;4990787;28;20194;-48
2023/03/05 01:54:38;;;;;;;14.23;10.60;;;;;;;11.71;61.76;94084.28;4990689;28;20225;-56
2023/03/05 01:57:11;;;;;;;17.57;10.80;;;;;;;11.65;61.81;94074.66;4990875;28;20185;-50
2023/03/05 01:59:41;;;;;;;15.83;10.73;;;;;;;11.69;61.71;94083.63;4990222;28;20185;-49
2023/03/05 02:02:10;;;;;;;15.87;11.03;;;;;;;11.68;61.50;94085.38;4990681;28;20252;-48
2023/03/05 02:04:42;;;;;;;17.37;11.17;;;;;;;11.68;61.63;94084.59;4988535;28;20201;-50
2023/03/05 02:07:10;;;;;;;16.90;10.47;;;;;;;11.68;61.61;94085.38;4990754;28;20725;-47
2023/03/05 02:09:38;;;;;;;18.63;11.33;;;;;;;11.68;61.64;94084.59;4990694;28;20189;-54
2023/03/05 02:12:06;;;;;;;17.20;10.63;;;;;;;11.53;61.52;94066.50;4990479;28;20669;-48
2023/03/05 02:14:33;;;;;;;19.60;11.83;;;;;;;11.66;61.57;94079.63;4989625;28;20255;-52
2023/03/05 02:17:00;;;;;;;16.13;10.57;;;;;;;11.67;61.41;94081.22;4990692;28;20663;-51
2023/03/05 02:19:28;;;;;;;16.73;11.37;;;;;;;11.67;61.46;94083.00;4990307;28;20255;-49
2023/03/05 02:21:56;;;;;;;12.53;10.37;;;;;;;11.66;61.56;94083.97;4990667;28;20193;-51
2023/03/05 02:24:36;;;;;;;16.70;11.47;;;;;;;11.66;61.48;94089.09;4989999;28;20193;-50
2023/03/05 02:27:04;;;;;;;16.80;10.77;;;;;;;11.65;61.42;94087.47;4990458;28;20228;-51
2023/03/05 02:29:32;;;;;;;17.60;11.60;;;;;;;11.61;61.12;94081.84;4989977;28;20189;-51
2023/03/05 02:32:00;;;;;;;16.23;11.43;;;;;;;11.58;61.46;94084.75;4990312;28;20280;-50
2023/03/05 02:34:27;;;;;;;18.30;10.70;;;;;;;11.59;61.30;94085.53;4989827;28;20212;-51
2023/03/05 02:36:54;;;;;;;15.33;9.97;;;;;;;11.59;61.46;94083.00;4990060;28;20646;-48
2023/03/05 02:39:22;;;;;;;16.97;10.63;;;;;;;11.62;61.37;94090.34;4989723;28;20189;-47
2023/03/05 02:41:49;;;;;;;15.83;10.27;;;;;;;11.62;61.21;94092.91;4990073;28;20193;-47
2023/03/05 02:44:16;;;;;;;15.30;10.30;;;;;;;11.60;61.43;94087.13;4977131;28;20197;-46
2023/03/05 02:46:43;;;;;;;17.70;10.90;;;;;;;11.59;61.29;94088.09;4984928;28;20317;-48
2023/03/05 02:49:09;;;;;;;11.83;9.63;;;;;;;11.59;61.46;94093.22;4990392;28;20202;-50
2023/03/05 02:51:36;;;;;;;16.57;11.83;;;;;;;11.58;61.48;94089.06;4990175;28;20288;-49
2023/03/05 02:54:04;;;;;;;19.13;11.60;;;;;;;11.56;61.32;94092.56;4989330;28;20198;-51
2023/03/05 02:56:32;;;;;;;14.20;10.73;;;;;;;11.55;61.48;94093.53;4989404;28;20886;-51
2023/03/05 02:58:59;;;;;;;16.17;11.23;;;;;;;11.54;61.35;94094.50;4990011;28;20192;-47
2023/03/05 03:01:27;;;;;;;15.33;11.20;;;;;;;11.54;61.36;94098.81;4989601;28;20193;-49
2023/03/05 03:03:53;;;;;;;16.03;11.70;;;;;;;11.53;61.55;94099.78;4989528;28;20272;-47
2023/03/05 03:06:20;;;;;;;17.97;11.87;;;;;;;11.50;61.47;94090.66;4989447;28;20185;-51
2023/03/05 03:08:47;;;;;;;15.60;11.10;;;;;;;11.51;61.42;94101.69;4989902;28;20189;-48
2023/03/05 03:11:14;;;;;;;13.10;9.97;;;;;;;11.49;61.49;94095.94;4989657;28;20213;-52
2023/03/05 03:13:42;;;;;;;16.53;11.03;;;;;;;11.49;61.47;94098.50;4989966;28;20196;-47
2023/03/05 03:16:12;;;;;;;17.37;11.17;;;;;;;11.48;61.41;94100.25;4989553;28;20665;-46
2023/03/05 03:18:39;;;;;;;18.43;12.00;;;;;;;11.47;61.37;94103.75;4988992;28;20197;-47
2023/03/05 03:21:06;;;;;;;18.87;11.93;;;;;;;11.45;61.57;94098.00;4989493;28;20196;-51
2023/03/05 03:23:34;;;;;;;15.33;10.87;;;;;;;11.46;61.49;94101.38;4989927;28;20231;-49
2023/03/05 03:26:00;;;;;;;14.77;10.93;;;;;;;11.43;61.52;94101.69;4989430;28;20208;-47
2023/03/05 03:28:27;;;;;;;17.90;11.67;;;;;;;11.44;61.43;94100.72;4989263;28;20228;-53
2023/03/05 03:30:55;;;;;;;15.67;11.43;;;;;;;11.44;61.56;94104.09;4989489;28;20570;-51
2023/03/05 03:33:22;;;;;;;18.20;11.93;;;;;;;11.44;61.38;94103.28;4989011;28;20669;-47
2023/03/05 03:35:49;;;;;;;16.40;11.37;;;;;;;11.44;61.23;94105.84;4989849;28;20189;-53
2023/03/05 03:38:16;;;;;;;16.10;12.13;;;;;;;11.42;61.29;94100.88;4989490;28;20193;-53
2023/03/05 03:40:43;;;;;;;15.23;11.00;;;;;;;11.39;61.48;94100.38;4989619;28;20677;-48
2023/03/05 03:43:09;;;;;;;15.20;11.67;;;;;;;11.41;61.29;94106.97;4988892;28;20625;-47
2023/03/05 03:45:40;;;;;;;18.40;11.83;;;;;;;11.41;61.52;94108.72;4989548;28;20200;-52
2023/03/05 03:48:09;;;;;;;19.33;12.60;;;;;;;11.40;61.64;94107.09;4989018;28;20217;-51
2023/03/05 03:50:38;;;;;;;19.77;12.93;;;;;;;11.37;61.38;94108.22;4989103;28;20593;-50
2023/03/05 03:53:05;;;;;;;20.17;12.47;;;;;;;11.37;61.34;94110.78;4989242;28;20197;-51
2023/03/05 03:55:32;;;;;;;16.73;11.30;;;;;;;11.37;61.37;94108.22;4989092;28;20220;-48
2023/03/05 03:57:59;;;;;;;16.93;11.57;;;;;;;11.37;61.47;94112.56;4989206;28;20197;-52
2023/03/05 04:00:26;;;;;;;20.60;12.93;;;;;;;11.35;61.36;94114.47;4989283;28;20185;-54
2023/03/05 04:02:52;;;;;;;15.67;11.83;;;;;;;11.34;61.51;94115.41;4989035;28;20267;-50
2023/03/05 04:05:21;;;;;;;17.83;12.87;;;;;;;11.32;61.49;94104.56;4989598;28;20251;-49
2023/03/05 04:07:47;;;;;;;17.67;12.43;;;;;;;11.30;61.43;94104.69;4989182;28;20240;-48
2023/03/05 04:10:14;;;;;;;17.30;11.97;;;;;;;11.29;61.61;94113.34;4989228;28;20190;-47
2023/03/05 04:12:42;;;;;;;19.97;12.77;;;;;;;11.24;61.57;94110.44;4989149;28;20189;-51
2023/03/05 04:15:10;;;;;;;19.87;13.23;;;;;;;11.28;61.31;94117.66;4991029;28;20292;-50
2023/03/05 04:17:37;;;;;;;17.20;12.47;;;;;;;11.28;61.40;94114.28;4992937;28;20181;-52
2023/03/05 04:20:06;;;;;;;20.00;12.67;;;;;;;11.28;61.44;94120.22;4992785;28;20688;-51
2023/03/05 04:22:34;;;;;;;22.10;13.83;;;;;;;11.23;61.51;94119.09;4992614;28;20278;-52
2023/03/05 04:25:02;;;;;;;19.43;12.93;;;;;;;11.27;61.54;94118.63;4984932;28;20197;-49
2023/03/05 04:27:29;;;;;;;20.37;12.73;;;;;;;11.26;61.56;94117.00;4993038;28;20232;-51
2023/03/05 04:29:56;;;;;;;23.97;13.03;;;;;;;11.26;61.36;94114.44;4992271;28;20200;-48
2023/03/05 04:32:27;;;;;;;20.60;13.53;;;;;;;11.25;61.49;94125.63;4991842;28;20215;-53
2023/03/05 04:34:54;;;;;;;24.07;13.67;;;;;;;11.24;61.40;94111.25;4992903;28;20266;-50
2023/03/05 04:37:21;;;;;;;22.80;13.60;;;;;;;11.21;61.51;94111.53;4992774;28;20185;-48
2023/03/05 04:39:49;;;;;;;19.90;13.80;;;;;;;11.21;61.46;94111.53;4992603;28;20200;-47
2023/03/05 04:42:17;;;;;;;22.90;14.40;;;;;;;11.21;61.26;94103.06;4992628;28;20560;-51
2023/03/05 04:44:43;;;;;;;21.93;14.03;;;;;;;11.22;61.40;94109.78;4992508;28;20204;-52
2023/03/05 04:47:10;;;;;;;21.57;13.03;;;;;;;11.20;61.22;94109.94;4992583;28;20650;-51
2023/03/05 04:49:37;;;;;;;17.90;12.80;;;;;;;11.17;61.13;94101.78;4992991;28;20224;-52
2023/03/05 04:52:04;;;;;;;18.87;13.67;;;;;;;11.20;61.58;94104.03;4992142;28;20204;-52
2023/03/05 04:54:31;;;;;;;24.47;13.97;;;;;;;11.17;61.40;94110.25;4992525;28;20306;-50
2023/03/05 04:57:00;;;;;;;19.63;13.47;;;;;;;11.19;61.31;94102.44;4992222;28;20300;-52
2023/03/05 04:59:26;;;;;;;22.20;13.17;;;;;;;11.17;61.39;94099.22;4992681;28;20302;-52
2023/03/05 05:01:53;;;;;;;18.83;12.90;;;;;;;11.17;61.29;94102.56;4992103;28;20185;-49
2023/03/05 05:04:20;;;;;;;21.00;14.00;;;;;;;11.17;61.27;94102.56;4991937;28;20266;-53
2023/03/05 05:06:47;;;;;;;25.17;14.60;;;;;;;11.16;61.21;94108.66;4992126;28;20189;-48
2023/03/05 05:09:14;;;;;;;21.40;13.17;;;;;;;11.11;61.55;94097.28;4992379;28;20236;-55
2023/03/05 05:11:41;;;;;;;19.70;13.37;;;;;;;11.15;61.19;94101.16;4992090;28;20193;-51
2023/03/05 05:14:09;;;;;;;20.03;14.00;;;;;;;11.16;61.19;94107.84;4992370;28;20193;-53
2023/03/05 05:16:36;;;;;;;18.10;12.73;;;;;;;11.16;61.29;94107.84;4991416;28;20199;-49
2023/03/05 05:19:03;;;;;;;20.47;13.00;;;;;;;11.16;61.24;94112.97;4991448;28;20624;-53
2023/03/05 05:21:30;;;;;;;23.50;13.90;;;;;;;11.16;61.19;94112.97;4991338;28;20201;-52
2023/03/05 05:23:56;;;;;;;22.77;13.67;;;;;;;11.14;61.18;94108.03;4991670;28;20204;-49
2023/03/05 05:26:23;;;;;;;19.57;13.90;;;;;;;11.16;61.23;94111.22;4990618;28;20638;-49
2023/03/05 05:28:50;;;;;;;23.07;14.07;;;;;;;11.21;61.02;94115.88;4991692;28;20228;-51
2023/03/05 05:31:19;;;;;;;18.47;13.03;;;;;;;11.21;61.06;94109.00;4991226;28;20283;-53
2023/03/05 05:33:46;;;;;;;22.50;13.27;;;;;;;11.24;60.67;94103.56;4990995;28;20196;-48
2023/03/05 05:36:15;;;;;;;19.13;12.47;;;;;;;11.30;60.77;94113.16;4991304;28;20189;-49
2023/03/05 05:38:42;;;;;;;19.30;12.70;;;;;;;11.35;60.58;94111.91;4991119;28;20569;-48
2023/03/05 05:41:11;;;;;;;20.23;13.07;;;;;;;11.40;60.45;94117.34;4991311;28;20197;-53
2023/03/05 05:43:38;;;;;;;18.23;12.67;;;;;;;11.46;60.39;94114.16;4991334;28;20197;-48
2023/03/05 05:46:08;;;;;;;24.33;13.90;;;;;;;11.57;60.25;94118.97;4990945;28;20193;-49
2023/03/05 05:48:37;;;;;;;20.13;13.53;;;;;;;11.75;59.82;94127.34;4991120;28;20225;-46
2023/03/05 05:51:06;;;;;;;18.27;12.83;;;;;;;11.93;59.46;94116.19;4991439;28;20200;-52
2023/03/05 05:53:33;;;;;;;20.57;13.53;;;;;;;12.10;59.21;94120.34;4990948;28;20604;-46
2023/03/05 05:55:59;;;;;;;20.73;12.70;;;;;;;12.35;58.94;94120.28;4990608;28;20325;-50
2023/03/05 05:58:26;;;;;;;19.30;12.63;;;;;;;12.54;58.76;94120.75;4990529;28;20193;-47
2023/03/05 06:00:53;;;;;;;20.23;13.27;;;;;;;12.70;58.59;94126.81;4990842;28;20199;-51
2023/03/05 06:03:20;;;;;;;18.47;13.10;;;;;;;12.81;58.48;94126.47;4990809;28;20196;-50
2023/03/05 06:05:50;;;;;;;20.63;13.73;;;;;;;12.89;58.25;94131.56;4991157;28;20240;-54
2023/03/05 06:08:17;;;;;;;17.07;12.63;;;;;;;12.97;58.08;94130.75;4990142;28;20216;-48
2023/03/05 06:10:46;;;;;;;21.80;12.30;;;;;;;13.04;57.92;94139.41;4990181;28;20680;-53
2023/03/05 06:13:12;;;;;;;18.20;12.20;;;;;;;13.09;57.63;94133.75;4990864;28;20185;-52
2023/03/05 06:15:39;;;;;;;18.90;13.17;;;;;;;13.16;57.76;94139.81;4990801;28;20204;-54
2023/03/05 06:18:06;;;;;;;18.77;12.30;;;;;;;13.20;57.52;94138.50;4990394;28;20216;-51
2023/03/05 06:20:33;;;;;;;20.80;14.00;;;;;;;13.27;57.15;94140.28;4990530;28;20654;-50
2023/03/05 06:23:01;;;;;;;20.57;12.97;;;;;;;13.30;57.00;94134.00;4990774;28;20689;-55
2023/03/05 06:25:28;;;;;;;18.67;12.30;;;;;;;13.34;56.92;94139.59;4971291;28;20204;-50
2023/03/05 06:27:55;;;;;;;21.67;13.03;;;;;;;13.36;56.78;94143.59;4976016;28;20205;-53
2023/03/05 06:30:22;;;;;;;18.83;12.37;;;;;;;13.39;56.64;94148.41;4989792;28;20208;-51
2023/03/05 06:32:48;;;;;;;19.43;11.40;;;;;;;13.42;56.50;94149.81;4990383;28;20204;-53
2023/03/05 06:35:15;;;;;;;18.20;12.50;;;;;;;13.42;56.33;94149.81;4990639;28;20197;-51
2023/03/05 06:37:42;;;;;;;17.00;12.03;;;;;;;13.45;56.12;94152.88;4990212;28;20201;-51
2023/03/05 06:40:15;;;;;;;22.87;13.53;;;;;;;13.47;56.17;94150.94;4990451;28;20561;-54
2023/03/05 06:42:42;;;;;;;21.40;12.30;;;;;;;13.54;56.05;94149.28;4990814;28;20201;-51
2023/03/05 06:45:10;;;;;;;17.37;12.67;;;;;;;13.55;55.84;94140.59;4990100;28;20584;-51
2023/03/05 06:47:37;;;;;;;16.03;11.20;;;;;;;13.68;55.85;94150.31;4990230;28;20189;-52
2023/03/05 06:50:04;;;;;;;17.37;12.10;;;;;;;13.78;55.59;94156.06;4990553;28;20186;-52
2023/03/05 06:52:31;;;;;;;18.03;12.03;;;;;;;13.87;55.55;94156.00;4990003;28;20196;-51
2023/03/05 06:54:58;;;;;;;18.20;12.53;;;;;;;13.99;55.26;94158.00;4989768;28;20240;-49
2023/03/05 06:57:26;;;;;;;17.63;12.30;;;;;;;14.12;55.17;94154.03;4984670;28;20189;-51
2023/03/05 06:59:53;;;;;;;16.50;11.83;;;;;;;14.25;55.07;94164.56;4983647;28;20193;-52
2023/03/05 07:02:20;;;;;;;18.10;11.93;;;;;;;14.42;54.87;94160.06;5001642;28;20192;-52
2023/03/05 07:04:47;;;;;;;13.67;8.80;;;;;;;14.76;78.74;94151.91;4998041;28;20292;-51
2023/03/05 07:07:13;;;;;;;15.00;9.47;;;;;;;15.50;82.11;94162.16;4989972;28;20611;-46
2023/03/05 07:09:42;;;;;;;14.50;8.97;;;;;;;16.14;78.14;94158.88;4989433;28;20224;-53
2023/03/05 07:12:10;;;;;;;16.83;8.60;;;;;;;16.72;74.79;94164.72;4989896;28;20215;-53
2023/03/05 07:14:39;;;;;;;14.03;9.27;;;;;;;17.22;71.80;94155.91;4990198;28;20196;-55
2023/03/05 07:17:07;;;;;;;12.80;8.60;;;;;;;17.67;69.51;94151.13;4989328;28;20239;-55
2023/03/05 07:19:34;;;;;;;11.83;9.07;;;;;;;18.09;67.35;94156.22;4989537;28;20185;-51
2023/03/05 07:22:01;;;;;;;12.87;9.30;;;;;;;18.42;65.63;94159.63;4989802;28;20200;-52
2023/03/05 07:24:28;;;;;;;16.13;9.23;;;;;;;18.73;64.17;94155.66;4989742;28;20617;-50
2023/03/05 07:26:56;;;;;;;11.97;9.17;;;;;;;19.02;62.73;94152.63;4981047;28;20190;-54
2023/03/05 07:29:23;;;;;;;12.97;8.90;;;;;;;19.34;61.43;94159.72;4967956;28;20232;-52
2023/03/05 07:31:51;;;;;;;16.70;9.47;;;;;;;19.64;60.25;94160.81;4968260;28;20284;-53
2023/03/05 07:34:18;;;;;;;14.67;9.63;;;;;;;19.95;59.06;94156.72;4968162;28;20198;-51
2023/03/05 07:36:45;;;;;;;12.57;9.73;;;;;;;20.29;57.31;94150.28;4968069;28;20873;-54
2023/03/05 07:39:13;;;;;;;13.43;10.27;;;;;;;20.62;55.76;94150.06;4976830;28;20206;-53
2023/03/05 07:41:40;;;;;;;13.10;9.30;;;;;;;20.91;54.92;94140.03;4986883;28;20194;-50
2023/03/05 07:44:06;;;;;;;17.03;10.87;;;;;;;21.19;54.63;94148.13;4986314;28;20208;-51
2023/03/05 07:46:34;;;;;;;15.23;10.75;;;;;;;21.50;53.73;94155.03;4985041;28;20193;-50
2023/03/05 07:49:02;;;;;;;15.70;10.83;;;;;;;21.80;52.76;94149.03;4987619;28;20224;-49
2023/03/05 07:51:29;;;;;;;16.42;10.93;;;;;;;22.08;51.87;94147.69;4988307;28;20185;-47
2023/03/05 07:53:58;;;;;;;15.38;10.68;;;;;;;22.33;50.85;94153.56;4989881;28;20189;-53
2023/03/05 07:56:30;;;;;;;14.52;10.85;;;;;;;22.51;49.98;94147.47;4990236;28;20255;-51
2023/03/05 07:58:57;;;;;;;13.70;9.70;;;;;;;22.74;49.73;94152.69;4989350;28;20689;-48
2023/03/05 08:01:24;;;;;;;16.88;10.50;;;;;;;23.09;48.15;94158.97;4990283;28;20219;-47
2023/03/05 08:03:51;;;;;;;16.63;10.65;;;;;;;23.24;47.80;94157.47;4990183;28;20189;-51
2023/03/05 08:06:19;;;;;;;13.15;10.35;;;;;;;23.27;47.08;94157.03;4990197;28;20574;-51
2023/03/05 08:08:46;;;;;;;16.40;11.20;;;;;;;23.24;47.31;94157.47;4990065;28;20216;-52
2023/03/05 08:11:15;;;;;;;16.70;10.63;;;;;;;23.19;47.03;94159.19;4990165;28;20197;-51
2023/03/05 08:13:43;;;;;;;16.13;10.90;;;;;;;23.10;46.83;94157.94;4989981;28;20204;-51
2023/03/05 08:16:12;;;;;;;12.65;10.30;;;;;;;23.02;47.03;94152.06;4990088;28;20224;-47
2023/03/05 08:18:39;;;;;;;15.93;10.38;;;;;;;22.94;47.28;94156.81;4986949;28;20208;-46
2023/03/05 08:21:06;;;;;;;15.20;10.60;;;;;;;22.84;47.35;94149.53;4990013;28;20191;-47
2023/03/05 08:23:34;;;;;;;18.23;10.40;;;;;;;22.74;47.67;94155.28;4989788;28;20558;-52
2023/03/05 08:26:01;;;;;;;14.70;10.73;;;;;;;22.61;47.58;94149.50;4988874;28;20197;-53
2023/03/05 08:28:28;;;;;;;13.65;9.88;;;;;;;22.48;47.91;94156.50;4987439;28;20676;-52
2023/03/05 08:30:55;;;;;;;13.60;10.52;;;;;;;22.34;47.86;94151.75;4989973;28;20208;-52
2023/03/05 08:33:22;;;;;;;14.77;10.43;;;;;;;22.24;47.91;94154.91;4991220;28;20650;-52
2023/03/05 08:35:48;;;;;;;15.05;10.15;;;;;;;22.16;48.32;94152.59;4989410;28;20192;-54
2023/03/05 08:38:15;;;;;;;12.43;9.98;;;;;;;22.09;48.24;94149.25;4989403;28;20189;-54
2023/03/05 08:40:44;;;;;;;12.50;9.98;;;;;;;22.07;48.21;94148.69;4987700;28;20185;-47
2023/03/05 08:43:11;;;;;;;15.15;10.70;;;;;;;22.04;48.36;94142.91;4992168;28;20280;-53
2023/03/05 08:45:39;;;;;;;15.32;11.15;;;;;;;22.01;48.17;94132.13;4992560;28;20189;-48
2023/03/05 08:48:06;;;;;;;15.43;10.40;;;;;;;21.91;47.62;94137.09;4992297;28;20196;-52
2023/03/05 08:50:35;;;;;;;16.48;11.15;;;;;;;21.82;47.52;94141.81;4992294;28;20296;-51
2023/03/05 08:53:02;;;;;;;13.50;10.63;;;;;;;21.72;47.31;94141.56;4988085;28;20212;-53
2023/03/05 08:55:29;;;;;;;15.18;10.95;;;;;;;21.61;46.98;94142.28;4985043;28;20225;-53
2023/03/05 08:57:57;;;;;;;14.23;10.68;;;;;;;21.53;46.57;94138.97;4991789;28;20200;-50
2023/03/05 09:00:24;;;;;;;17.65;10.68;;;;;;;21.46;46.58;94130.47;4991694;28;20197;-51
2023/03/05 09:02:51;;;;;;;16.27;11.13;;;;;;;21.45;46.47;94128.06;4991170;28;20193;-50
2023/03/05 09:05:18;;;;;;;13.15;10.77;;;;;;;21.47;46.54;94120.84;4990993;28;20577;-47
2023/03/05 09:07:45;;;;;;;14.13;10.52;;;;;;;21.49;46.24;94113.59;4989700;28;20630;-50
2023/03/05 09:10:13;;;;;;;13.38;9.98;;;;;;;21.55;46.11;94117.94;4989499;28;20660;-47
2023/03/05 09:12:40;;;;;;;14.52;10.98;;;;;;;21.59;45.79;94118.28;4991329;28;20193;-48
2023/03/05 09:15:11;;;;;;;16.73;11.35;;;;;;;21.60;45.77;94109.47;4991645;28;20282;-50
2023/03/05 09:17:40;;;;;;;12.45;9.48;;;;;;;21.68;45.99;94114.38;4991551;28;20243;-46
2023/03/05 09:20:11;;;;;;;14.13;10.15;;;;;;;21.74;45.99;94119.47;4991457;28;20589;-52
2023/03/05 09:22:38;;;;;;;13.15;9.70;;;;;;;21.74;45.65;94097.88;4991725;28;20193;-49
2023/03/05 09:25:06;;;;;;;13.73;10.30;;;;;;;21.77;45.49;94105.25;4991341;28;20673;-46
2023/03/05 09:27:34;;;;;;;12.50;9.80;;;;;;;21.74;45.30;94100.47;4991485;28;20197;-47
2023/03/05 09:30:00;;;;;;;14.85;9.75;;;;;;;21.74;44.81;94100.47;4990953;28;20315;-46
2023/03/05 09:32:29;;;;;;;13.52;10.48;;;;;;;21.72;44.80;94100.72;4989148;28;20196;-49
2023/03/05 09:34:55;;;;;;;12.13;9.95;;;;;;;21.70;44.69;94099.31;4990806;28;20189;-47
2023/03/05 09:37:22;;;;;;;11.67;9.40;;;;;;;21.65;44.38;94094.78;4991698;28;20276;-46
2023/03/05 09:39:49;;;;;;;12.88;9.93;;;;;;;21.58;44.48;94095.88;4991128;28;20185;-47
2023/03/05 09:42:29;;;;;;;13.77;10.15;;;;;;;21.51;44.24;94088.16;4991604;28;20197;-47
2023/03/05 09:45:11;;;;;;;14.48;9.23;;;;;;;21.40;44.25;94091.50;4991310;28;20185;-49
2023/03/05 09:47:51;;;;;;;13.75;9.35;;;;;;;21.32;44.02;94079.59;4991137;28;20197;-46
2023/03/05 09:50:32;;;;;;;13.40;9.40;;;;;;;21.25;43.83;94086.66;4990969;28;20716;-46
2023/03/05 09:53:06;;;;;;;10.50;8.48;;;;;;;21.23;43.81;94081.66;4991234;28;20185;-48
2023/03/05 09:55:39;;;;;;;12.30;9.38;;;;;;;21.20;43.92;94070.88;4991169;28;20316;-46
2023/03/05 09:58:11;;;;;;;14.52;9.60;;;;;;;21.27;43.53;94077.59;4990072;28;20201;-46
2023/03/05 10:00:42;;;;;;;15.38;9.65;;;;;;;21.26;43.06;94072.63;4990854;28;20678;-48
2023/03/05 10:03:16;;;;;;;12.35;9.13;;;;;;;21.25;43.18;94071.84;4990711;28;20196;-46
2023/03/05 10:06:06;;;;;;;11.93;9.35;;;;;;;21.31;42.90;94070.16;4991341;28;20196;-47
2023/03/05 10:08:49;;;;;;;11.20;8.52;;;;;;;21.35;42.73;94071.34;4990733;28;20193;-46
2023/03/05 10:11:33;;;;;;;11.10;8.50;;;;;;;21.39;42.64;94067.31;4990448;28;20205;-49
2023/03/05 10:14:00;;;;;;;11.13;8.55;;;;;;;21.37;42.42;94066.72;4990654;28;20188;-49
2023/03/05 10:17:03;;;;;;;11.48;8.60;;;;;;;21.35;42.43;94067.97;4990654;28;20228;-51
2023/03/05 10:19:54;;;;;;;11.30;8.15;;;;;;;21.25;42.30;94066.66;4985934;28;20197;-53
2023/03/05 10:22:23;;;;;;;9.57;7.90;;;;;;;21.17;42.14;94050.53;4990900;28;20216;-52
2023/03/05 10:25:03;;;;;;;10.13;8.40;;;;;;;21.13;42.33;94047.59;4989174;28;20190;-49
2023/03/05 10:27:43;;;;;;;11.98;8.15;;;;;;;21.11;42.33;94049.59;4991045;28;20639;-50
2023/03/05 10:30:23;;;;;;;12.55;8.88;;;;;;;21.04;42.00;94033.28;4990455;28;20566;-51
2023/03/05 10:32:59;;;;;;;11.03;8.20;;;;;;;21.08;42.09;94033.66;4990252;28;20219;-51
2023/03/05 10:35:55;;;;;;;8.80;7.82;;;;;;;21.07;42.10;94032.88;4990507;28;20234;-50
2023/03/05 10:38:37;;;;;;;10.90;8.25;;;;;;;21.04;42.11;94023.69;4930168;28;20199;-50
2023/03/05 10:41:12;;;;;;;11.10;8.65;;;;;;;20.98;41.76;94016.78;4930632;29;20203;-55
2023/03/05 10:43:47;;;;;;;10.00;8.50;;;;;;;20.95;41.99;94012.00;4930358;29;20198;-47
2023/03/05 10:46:17;;;;;;;10.55;8.10;;;;;;;20.89;42.08;94012.84;4930377;29;20203;-51
2023/03/05 10:48:49;;;;;;;8.73;7.85;;;;;;;20.73;42.05;94000.47;4928632;29;20669;-52
2023/03/05 10:51:24;;;;;;;9.00;7.13;;;;;;;20.72;41.68;94011.84;4930418;29;20199;-51
2023/03/05 10:53:56;;;;;;;14.30;8.17;;;;;;;20.64;41.98;94007.75;4930365;29;20187;-47
2023/03/05 10:56:25;;;;;;;8.87;7.63;;;;;;;20.59;41.81;94007.59;4930303;29;20667;-50
2023/03/05 10:58:52;;;;;;;7.87;7.07;;;;;;;20.51;41.84;94008.69;4930305;29;20633;-50
2023/03/05 11:01:22;;;;;;;9.00;7.20;;;;;;;20.46;41.66;94003.28;4930014;29;20520;-50
2023/03/05 11:03:53;;;;;;;9.53;7.50;;;;;;;20.40;41.78;93990.38;4930096;29;20198;-53
2023/03/05 11:06:40;;;;;;;11.80;7.60;;;;;;;20.35;41.58;93992.84;4929958;29;20205;-53
2023/03/05 11:09:19;;;;;;;9.93;7.80;;;;;;;20.30;41.86;93986.50;4930288;28;20245;-50
2023/03/05 11:12:03;;;;;;;8.60;7.50;;;;;;;20.27;41.80;93983.53;4929807;29;20258;-51
2023/03/05 11:14:32;;;;;;;10.37;7.40;;;;;;;20.24;41.87;93986.53;4929037;28;20199;-50
2023/03/05 11:17:00;;;;;;;9.13;7.43;;;;;;;20.18;41.86;93969.22;4988665;28;20181;-51
2023/03/05 11:19:31;;;;;;;9.30;7.50;;;;;;;20.17;41.94;93980.63;4990047;28;20197;-54
2023/03/05 11:22:16;;;;;;;11.33;7.60;;;;;;;20.07;41.67;93969.91;4989935;28;20276;-53
2023/03/05 11:24:45;;;;;;;9.33;7.33;;;;;;;20.08;41.84;93971.50;4991549;28;20653;-53
2023/03/05 11:27:25;;;;;;;7.73;6.97;;;;;;;20.02;41.77;93973.94;4994048;28;20200;-47